sensor_id;sensor_type;location;lat;lon;timestamp;P1;durP1;ratioP1;P2;durP2;ratioP2
71162;SDS011;58858;50.948;6.566;2023-05-17T00:04:31;4.97;;;1.92;;
71162;SDS011;58858;50.948;6.566;2023-05-17T00:14:32;5.50;;;2.30;;
71162;SDS011;58858;50.948;6.566;2023-05-17T00:24:34;3.30;;;1.60;;
71162;SDS011;58858;50.948;6.566;2023-05-17T00:34:35;3.40;;;1.83;;
71162;SDS011;58858;50.948;6.566;2023-05-17T00:44:36;4.55;;;2.15;;
71162;SDS011;58858;50.948;6.566;2023-05-17T00:54:37;2.80;;;2.17;;
71162;SDS011;58858;50.948;6.566;2023-05-17T01:04:40;9.90;;;3.50;;
71162;SDS011;58858;50.948;6.566;2023-05-17T01:35:37;8.50;;;3.13;;
71162;SDS011;58858;50.948;6.566;2023-05-17T01:56:20;9.50;;;3.20;;
71162;SDS011;58858;50.948;6.566;2023-05-17T02:06:28;10.65;;;3.97;;
71162;SDS011;58858;50.948;6.566;2023-05-17T02:16:29;9.65;;;3.63;;
71162;SDS011;58858;50.948;6.566;2023-05-17T02:26:30;9.60;;;3.33;;
71162;SDS011;58858;50.948;6.566;2023-05-17T02:36:31;5.90;;;2.83;;
71162;SDS011;58858;50.948;6.566;2023-05-17T02:46:32;6.03;;;3.65;;
71162;SDS011;58858;50.948;6.566;2023-05-17T02:56:33;5.03;;;3.25;;
71162;SDS011;58858;50.948;6.566;2023-05-17T03:06:36;5.82;;;3.83;;
71162;SDS011;58858;50.948;6.566;2023-05-17T03:16:38;13.70;;;5.40;;
71162;SDS011;58858;50.948;6.566;2023-05-17T03:26:40;12.70;;;5.75;;
71162;SDS011;58858;50.948;6.566;2023-05-17T03:36:43;8.85;;;4.78;;
71162;SDS011;58858;50.948;6.566;2023-05-17T03:46:45;19.70;;;5.68;;
71162;SDS011;58858;50.948;6.566;2023-05-17T03:56:46;15.18;;;7.43;;
71162;SDS011;58858;50.948;6.566;2023-05-17T04:06:50;15.68;;;8.10;;
71162;SDS011;58858;50.948;6.566;2023-05-17T04:16:51;14.05;;;5.90;;
71162;SDS011;58858;50.948;6.566;2023-05-17T04:26:53;21.02;;;7.15;;
71162;SDS011;58858;50.948;6.566;2023-05-17T04:36:58;17.47;;;8.60;;
71162;SDS011;58858;50.948;6.566;2023-05-17T04:47:01;21.17;;;9.25;;
71162;SDS011;58858;50.948;6.566;2023-05-17T04:57:03;21.83;;;8.63;;
71162;SDS011;58858;50.948;6.566;2023-05-17T05:07:28;16.98;;;8.18;;
71162;SDS011;58858;50.948;6.566;2023-05-17T05:17:29;22.40;;;9.07;;
71162;SDS011;58858;50.948;6.566;2023-05-17T05:27:31;24.38;;;8.90;;
71162;SDS011;58858;50.948;6.566;2023-05-17T05:37:32;17.15;;;8.35;;
71162;SDS011;58858;50.948;6.566;2023-05-17T05:47:33;19.92;;;8.70;;
71162;SDS011;58858;50.948;6.566;2023-05-17T05:57:34;21.00;;;9.23;;
71162;SDS011;58858;50.948;6.566;2023-05-17T06:07:36;16.40;;;9.00;;
71162;SDS011;58858;50.948;6.566;2023-05-17T06:17:37;22.92;;;9.35;;
71162;SDS011;58858;50.948;6.566;2023-05-17T06:27:38;14.93;;;8.43;;
71162;SDS011;58858;50.948;6.566;2023-05-17T06:37:39;18.45;;;7.22;;
71162;SDS011;58858;50.948;6.566;2023-05-17T06:47:40;18.38;;;7.57;;
71162;SDS011;58858;50.948;6.566;2023-05-17T06:57:41;14.35;;;7.15;;
71162;SDS011;58858;50.948;6.566;2023-05-17T07:07:42;15.30;;;5.38;;
71162;SDS011;58858;50.948;6.566;2023-05-17T07:17:44;20.25;;;5.38;;
71162;SDS011;58858;50.948;6.566;2023-05-17T07:27:45;13.50;;;4.10;;
71162;SDS011;58858;50.948;6.566;2023-05-17T07:37:47;13.70;;;3.47;;
71162;SDS011;58858;50.948;6.566;2023-05-17T07:47:48;8.55;;;3.25;;
71162;SDS011;58858;50.948;6.566;2023-05-17T07:57:49;7.35;;;2.88;;
71162;SDS011;58858;50.948;6.566;2023-05-17T08:07:50;8.70;;;3.70;;
71162;SDS011;58858;50.948;6.566;2023-05-17T08:17:51;9.60;;;2.58;;
71162;SDS011;58858;50.948;6.566;2023-05-17T08:27:52;9.68;;;2.70;;
71162;SDS011;58858;50.948;6.566;2023-05-17T08:37:53;9.13;;;2.22;;
71162;SDS011;58858;50.948;6.566;2023-05-17T08:47:55;10.18;;;2.65;;
71162;SDS011;58858;50.948;6.566;2023-05-17T08:57:56;9.27;;;3.78;;
71162;SDS011;58858;50.948;6.566;2023-05-17T09:07:57;9.25;;;2.80;;
71162;SDS011;58858;50.948;6.566;2023-05-17T09:17:59;10.50;;;3.17;;
71162;SDS011;58858;50.948;6.566;2023-05-17T09:28:01;11.88;;;2.83;;
71162;SDS011;58858;50.948;6.566;2023-05-17T09:38:10;14.02;;;3.33;;
71162;SDS011;58858;50.948;6.566;2023-05-17T09:48:18;10.52;;;2.50;;
71162;SDS011;58858;50.948;6.566;2023-05-17T09:58:21;8.50;;;2.05;;
71162;SDS011;58858;50.948;6.566;2023-05-17T10:08:22;11.90;;;3.50;;
71162;SDS011;58858;50.948;6.566;2023-05-17T10:18:27;9.02;;;2.75;;
71162;SDS011;58858;50.948;6.566;2023-05-17T10:28:28;8.27;;;2.22;;
71162;SDS011;58858;50.948;6.566;2023-05-17T10:38:30;7.43;;;2.30;;
71162;SDS011;58858;50.948;6.566;2023-05-17T10:48:31;12.57;;;2.53;;
71162;SDS011;58858;50.948;6.566;2023-05-17T10:58:33;8.43;;;2.58;;
71162;SDS011;58858;50.948;6.566;2023-05-17T11:08:34;10.18;;;2.90;;
71162;SDS011;58858;50.948;6.566;2023-05-17T11:29:12;7.57;;;2.03;;
71162;SDS011;58858;50.948;6.566;2023-05-17T11:39:14;12.82;;;2.50;;
71162;SDS011;58858;50.948;6.566;2023-05-17T11:49:20;7.50;;;2.10;;
71162;SDS011;58858;50.948;6.566;2023-05-17T11:59:22;7.57;;;2.30;;
71162;SDS011;58858;50.948;6.566;2023-05-17T12:09:24;5.07;;;2.22;;
71162;SDS011;58858;50.948;6.566;2023-05-17T12:19:25;7.95;;;2.10;;
71162;SDS011;58858;50.948;6.566;2023-05-17T12:29:29;8.90;;;2.30;;
71162;SDS011;58858;50.948;6.566;2023-05-17T12:39:30;18.30;;;2.90;;
71162;SDS011;58858;50.948;6.566;2023-05-17T12:49:36;8.70;;;2.13;;
71162;SDS011;58858;50.948;6.566;2023-05-17T12:59:44;5.10;;;1.85;;
71162;SDS011;58858;50.948;6.566;2023-05-17T13:09:47;6.22;;;2.10;;
71162;SDS011;58858;50.948;6.566;2023-05-17T13:19:48;19.85;;;2.55;;
71162;SDS011;58858;50.948;6.566;2023-05-17T13:29:49;7.82;;;1.60;;
71162;SDS011;58858;50.948;6.566;2023-05-17T13:39:50;2.83;;;1.85;;
71162;SDS011;58858;50.948;6.566;2023-05-17T13:49:54;5.05;;;1.90;;
71162;SDS011;58858;50.948;6.566;2023-05-17T13:59:55;4.13;;;1.33;;
71162;SDS011;58858;50.948;6.566;2023-05-17T14:09:56;8.88;;;1.77;;
71162;SDS011;58858;50.948;6.566;2023-05-17T14:19:57;10.07;;;1.85;;
71162;SDS011;58858;50.948;6.566;2023-05-17T14:29:58;11.52;;;2.10;;
71162;SDS011;58858;50.948;6.566;2023-05-17T14:40:01;9.05;;;2.13;;
71162;SDS011;58858;50.948;6.566;2023-05-17T14:50:02;8.52;;;2.10;;
71162;SDS011;58858;50.948;6.566;2023-05-17T15:00:03;9.38;;;3.22;;
71162;SDS011;58858;50.948;6.566;2023-05-17T15:10:09;5.88;;;1.85;;
71162;SDS011;58858;50.948;6.566;2023-05-17T15:20:12;8.10;;;2.88;;
71162;SDS011;58858;50.948;6.566;2023-05-17T15:30:14;6.00;;;1.92;;
71162;SDS011;58858;50.948;6.566;2023-05-17T15:40:15;4.85;;;1.80;;
71162;SDS011;58858;50.948;6.566;2023-05-17T15:50:16;9.38;;;2.45;;
71162;SDS011;58858;50.948;6.566;2023-05-17T16:00:18;4.85;;;1.60;;
71162;SDS011;58858;50.948;6.566;2023-05-17T16:10:19;5.82;;;2.10;;
71162;SDS011;58858;50.948;6.566;2023-05-17T16:20:20;8.68;;;2.72;;
71162;SDS011;58858;50.948;6.566;2023-05-17T16:30:21;8.73;;;2.85;;
71162;SDS011;58858;50.948;6.566;2023-05-17T16:40:23;11.90;;;2.67;;
71162;SDS011;58858;50.948;6.566;2023-05-17T16:50:24;9.73;;;1.92;;
71162;SDS011;58858;50.948;6.566;2023-05-17T17:00:25;9.15;;;2.38;;
71162;SDS011;58858;50.948;6.566;2023-05-17T17:10:26;7.03;;;2.30;;
71162;SDS011;58858;50.948;6.566;2023-05-17T17:20:28;6.68;;;2.55;;
71162;SDS011;58858;50.948;6.566;2023-05-17T17:30:30;6.82;;;1.75;;
71162;SDS011;58858;50.948;6.566;2023-05-17T17:40:31;8.35;;;2.35;;
71162;SDS011;58858;50.948;6.566;2023-05-17T17:50:32;5.53;;;1.98;;
71162;SDS011;58858;50.948;6.566;2023-05-17T18:00:33;9.05;;;2.30;;
71162;SDS011;58858;50.948;6.566;2023-05-17T18:10:36;8.32;;;2.40;;
71162;SDS011;58858;50.948;6.566;2023-05-17T18:20:37;7.60;;;2.53;;
71162;SDS011;58858;50.948;6.566;2023-05-17T18:30:41;8.07;;;1.88;;
71162;SDS011;58858;50.948;6.566;2023-05-17T18:40:42;6.70;;;2.70;;
71162;SDS011;58858;50.948;6.566;2023-05-17T18:50:43;10.88;;;2.55;;
71162;SDS011;58858;50.948;6.566;2023-05-17T19:00:45;7.60;;;2.35;;
71162;SDS011;58858;50.948;6.566;2023-05-17T19:10:48;8.32;;;2.70;;
71162;SDS011;58858;50.948;6.566;2023-05-17T19:20:49;5.80;;;2.53;;
71162;SDS011;58858;50.948;6.566;2023-05-17T19:30:51;9.07;;;2.33;;
71162;SDS011;58858;50.948;6.566;2023-05-17T19:40:52;9.70;;;2.53;;
71162;SDS011;58858;50.948;6.566;2023-05-17T19:50:53;10.70;;;2.40;;
71162;SDS011;58858;50.948;6.566;2023-05-17T20:00:54;6.85;;;2.45;;
71162;SDS011;58858;50.948;6.566;2023-05-17T20:10:56;9.73;;;2.65;;
71162;SDS011;58858;50.948;6.566;2023-05-17T20:20:57;10.93;;;2.75;;
71162;SDS011;58858;50.948;6.566;2023-05-17T20:30:58;8.57;;;2.60;;
71162;SDS011;58858;50.948;6.566;2023-05-17T20:40:59;6.50;;;2.33;;
71162;SDS011;58858;50.948;6.566;2023-05-17T20:51:00;8.05;;;2.58;;
71162;SDS011;58858;50.948;6.566;2023-05-17T21:01:02;7.90;;;2.92;;
71162;SDS011;58858;50.948;6.566;2023-05-17T21:11:03;8.45;;;2.72;;
71162;SDS011;58858;50.948;6.566;2023-05-17T21:21:04;12.75;;;3.80;;
71162;SDS011;58858;50.948;6.566;2023-05-17T21:31:05;7.93;;;2.72;;
71162;SDS011;58858;50.948;6.566;2023-05-17T21:41:06;14.63;;;2.83;;
71162;SDS011;58858;50.948;6.566;2023-05-17T21:51:07;12.50;;;2.50;;
71162;SDS011;58858;50.948;6.566;2023-05-17T22:01:08;8.98;;;2.60;;
71162;SDS011;58858;50.948;6.566;2023-05-17T22:11:09;8.80;;;3.28;;
71162;SDS011;58858;50.948;6.566;2023-05-17T22:21:10;10.52;;;2.58;;
71162;SDS011;58858;50.948;6.566;2023-05-17T22:31:14;11.38;;;2.78;;
71162;SDS011;58858;50.948;6.566;2023-05-17T22:41:18;7.05;;;2.33;;
71162;SDS011;58858;50.948;6.566;2023-05-17T22:51:19;12.10;;;2.85;;
71162;SDS011;58858;50.948;6.566;2023-05-17T23:01:21;7.05;;;2.45;;
71162;SDS011;58858;50.948;6.566;2023-05-17T23:11:23;14.70;;;2.78;;
71162;SDS011;58858;50.948;6.566;2023-05-17T23:21:24;10.20;;;2.83;;
71162;SDS011;58858;50.948;6.566;2023-05-17T23:31:25;5.78;;;2.80;;
71162;SDS011;58858;50.948;6.566;2023-05-17T23:41:26;9.25;;;2.67;;
71162;SDS011;58858;50.948;6.566;2023-05-17T23:51:28;8.40;;;2.50;;
